createdAt,value
2023-05-10T00:02:24.344Z,6.49
2023-05-10T00:07:27.477Z,6.44
2023-05-10T00:12:30.272Z,6.39
2023-05-10T00:17:33.100Z,6.34
2023-05-10T00:22:37.922Z,6.31
2023-05-10T00:27:40.640Z,6.27
2023-05-10T00:32:44.647Z,6.23
2023-05-10T00:37:47.471Z,6.19
2023-05-10T00:42:50.731Z,6.15
2023-05-10T00:47:56.249Z,6.11
2023-05-10T00:53:00.664Z,6.07
2023-05-10T00:58:03.463Z,6.02
2023-05-10T01:03:06.634Z,5.98
2023-05-10T01:08:09.899Z,5.95
2023-05-10T01:13:13.935Z,5.91
2023-05-10T01:18:21.240Z,5.87
2023-05-10T01:23:44.884Z,5.82
2023-05-10T01:29:02.751Z,5.76
2023-05-10T01:34:16.794Z,5.69
2023-05-10T01:39:29.649Z,5.61
2023-05-10T01:44:36.819Z,5.54
2023-05-10T01:49:47.848Z,5.46
2023-05-10T01:54:57.148Z,5.40
2023-05-10T02:00:02.262Z,5.31
2023-05-10T02:05:07.297Z,5.24
2023-05-10T02:10:12.837Z,5.20
2023-05-10T02:15:22.344Z,5.17
2023-05-10T02:20:26.699Z,5.12
2023-05-10T02:25:31.361Z,5.07
2023-05-10T02:30:36.227Z,5.03
2023-05-10T02:35:39.383Z,5.03
2023-05-10T02:40:43.639Z,5.05
2023-05-10T02:45:49.096Z,5.05
2023-05-10T02:50:53.534Z,5.04
2023-05-10T02:56:01.513Z,4.98
2023-05-10T03:01:04.640Z,4.94
2023-05-10T03:06:07.472Z,4.92
2023-05-10T03:11:34.900Z,4.93
2023-05-10T03:16:48.306Z,4.94
2023-05-10T03:21:53.756Z,4.95
2023-05-10T03:27:00.041Z,4.97
2023-05-10T03:32:03.283Z,5.01
2023-05-10T03:37:06.032Z,5.07
2023-05-10T03:42:08.897Z,5.15
2023-05-10T03:47:12.117Z,5.25
2023-05-10T03:52:15.429Z,5.37
2023-05-10T03:57:18.265Z,5.49
2023-05-10T04:02:21.109Z,5.62
2023-05-10T04:07:23.937Z,5.78
2023-05-10T04:12:26.749Z,5.96
2023-05-10T04:17:31.753Z,6.15
2023-05-10T04:22:34.631Z,6.36
2023-05-10T04:27:38.374Z,6.62
2023-05-10T04:32:41.283Z,8.51
2023-05-10T04:37:44.566Z,13.26
2023-05-10T04:42:47.631Z,17.36
2023-05-10T04:47:50.426Z,20.73
2023-05-10T04:52:53.414Z,23.26
2023-05-10T04:57:58.338Z,25.43
2023-05-10T05:03:01.240Z,25.69
2023-05-10T05:08:04.782Z,22.70
2023-05-10T05:13:07.785Z,20.01
2023-05-10T05:18:10.688Z,18.09
2023-05-10T05:23:13.750Z,16.72
2023-05-10T05:28:17.189Z,15.73
2023-05-10T05:33:20.485Z,15.13
2023-05-10T05:38:23.393Z,14.75
2023-05-10T05:43:26.320Z,14.49
2023-05-10T05:48:31.204Z,14.27
2023-05-10T05:53:34.924Z,14.16
2023-05-10T05:58:38.895Z,14.09
2023-05-10T06:03:42.612Z,14.10
2023-05-10T06:08:45.781Z,14.24
2023-05-10T06:14:01.189Z,14.44
2023-05-10T06:19:05.125Z,14.64
2023-05-10T06:24:08.564Z,14.92
2023-05-10T06:29:12.584Z,16.76
2023-05-10T06:34:15.478Z,21.57
2023-05-10T06:39:18.844Z,25.61
2023-05-10T06:44:22.549Z,28.34
2023-05-10T06:49:25.402Z,30.48
2023-05-10T06:54:28.521Z,32.02
2023-05-10T06:59:31.550Z,33.21
2023-05-10T07:04:35.402Z,34.11
2023-05-10T07:09:38.720Z,34.88
2023-05-10T07:14:43.637Z,35.21
2023-05-10T07:19:46.464Z,34.86
2023-05-10T07:24:49.585Z,34.20
2023-05-10T07:29:54.521Z,33.98
2023-05-10T07:34:57.468Z,33.82
2023-05-10T07:40:00.543Z,33.25
2023-05-10T07:45:03.650Z,32.98
2023-05-10T07:50:07.418Z,32.86
2023-05-10T07:55:11.874Z,32.25
2023-05-10T08:00:19.160Z,31.86
2023-05-10T08:05:22.349Z,31.35
2023-05-10T08:10:25.640Z,30.54
2023-05-10T08:15:28.432Z,29.67
2023-05-10T08:20:33.396Z,28.99
2023-05-10T08:25:36.470Z,28.52
2023-05-10T08:30:46.787Z,27.85
2023-05-10T08:35:50.061Z,27.18
2023-05-10T08:40:57.833Z,26.52
2023-05-10T08:46:06.692Z,25.82
2023-05-10T08:51:13.917Z,25.46
2023-05-10T08:56:18.719Z,25.19
2023-05-10T09:01:22.723Z,24.82
2023-05-10T09:06:25.832Z,24.58
2023-05-10T09:11:30.216Z,24.47
2023-05-10T09:16:33.140Z,24.28
2023-05-10T09:21:39.361Z,23.94
2023-05-10T09:26:53.512Z,23.03
2023-05-10T09:31:57.796Z,22.30
2023-05-10T09:37:03.878Z,21.78
2023-05-10T09:42:11.434Z,21.22
2023-05-10T09:47:19.485Z,20.76
2023-05-10T09:52:47.553Z,20.43
2023-05-10T09:57:59.744Z,20.38
2023-05-10T10:03:09.921Z,20.23
2023-05-10T10:08:16.469Z,19.99
2023-05-10T10:13:20.283Z,19.77
2023-05-10T10:18:28.145Z,19.57
2023-05-10T10:23:31.583Z,19.47
2023-05-10T10:29:01.490Z,19.46
2023-05-10T10:34:11.239Z,19.45
2023-05-10T10:39:25.096Z,19.43
2023-05-10T10:44:50.561Z,19.34
2023-05-10T10:50:05.274Z,19.24
2023-05-10T10:55:20.631Z,19.18
2023-05-10T11:00:38.087Z,19.10
2023-05-10T11:05:55.250Z,19.09
2023-05-10T11:11:12.076Z,19.17
2023-05-10T11:16:24.867Z,19.18
2023-05-10T11:21:28.454Z,19.12
2023-05-10T11:26:33.900Z,18.99
2023-05-10T11:31:43.510Z,18.90
2023-05-10T11:36:53.312Z,18.91
2023-05-10T11:41:58.212Z,18.91
2023-05-10T11:47:03.203Z,18.97
2023-05-10T11:52:21.457Z,19.00
2023-05-10T11:57:28.556Z,18.99
2023-05-10T12:02:37.616Z,18.99
2023-05-10T12:07:47.459Z,19.04
2023-05-10T12:12:53.711Z,19.06
2023-05-10T12:17:58.010Z,19.03
2023-05-10T12:23:04.712Z,19.02
2023-05-10T12:28:11.674Z,19.02
2023-05-10T12:33:17.650Z,19.04
2023-05-10T12:38:31.788Z,19.03
2023-05-10T12:43:36.390Z,19.01
2023-05-10T12:48:43.892Z,19.00
2023-05-10T12:53:49.692Z,19.04
2023-05-10T12:58:53.106Z,19.10
2023-05-10T13:03:56.701Z,19.09
2023-05-10T13:09:01.320Z,19.05
2023-05-10T13:14:05.929Z,19.09
2023-05-10T13:19:08.944Z,19.10
2023-05-10T13:24:15.054Z,19.12
2023-05-10T13:29:19.199Z,19.14
2023-05-10T13:34:22.134Z,19.15
2023-05-10T13:39:25.420Z,19.16
2023-05-10T13:44:28.366Z,19.14
2023-05-10T13:49:32.637Z,19.12
2023-05-10T13:54:35.557Z,19.10
2023-05-10T13:59:38.860Z,19.09
2023-05-10T14:04:42.092Z,19.04
2023-05-10T14:09:44.895Z,18.98
2023-05-10T14:14:47.752Z,18.92
2023-05-10T14:19:50.682Z,18.88
2023-05-10T14:24:56.179Z,18.85
2023-05-10T14:30:00.474Z,18.79
2023-05-10T14:35:12.207Z,18.74
2023-05-10T14:40:19.871Z,18.72
2023-05-10T14:45:25.073Z,18.67
2023-05-10T14:50:36.435Z,18.62
2023-05-10T14:55:42.328Z,18.58
2023-05-10T15:00:45.217Z,18.52
2023-05-10T15:05:48.809Z,18.44
2023-05-10T15:10:52.440Z,18.41
2023-05-10T15:15:56.008Z,18.40
2023-05-10T15:20:58.957Z,18.35
2023-05-10T15:26:04.238Z,18.30
2023-05-10T15:31:07.234Z,18.37
2023-05-10T15:36:10.093Z,19.37
2023-05-10T15:41:13.430Z,19.20
2023-05-10T15:46:16.274Z,18.86
2023-05-10T15:51:21.039Z,18.60
2023-05-10T15:56:25.154Z,18.37
2023-05-10T16:01:29.316Z,18.21
2023-05-10T16:06:35.771Z,18.09
2023-05-10T16:11:38.799Z,17.98
2023-05-10T16:16:41.967Z,17.86
2023-05-10T16:21:44.891Z,17.74
2023-05-10T16:26:48.656Z,17.60
2023-05-10T16:31:52.575Z,17.47
2023-05-10T16:36:55.410Z,17.35
2023-05-10T16:41:59.199Z,17.24
2023-05-10T16:47:04.223Z,17.13
2023-05-10T16:52:07.139Z,17.02
2023-05-10T16:57:09.966Z,16.90
2023-05-10T17:02:14.039Z,16.78
2023-05-10T17:07:19.095Z,16.68
2023-05-10T17:12:28.644Z,16.54
2023-05-10T17:17:33.546Z,16.42
2023-05-10T17:22:36.446Z,16.27
2023-05-10T17:27:39.677Z,16.13
2023-05-10T17:32:43.878Z,15.99
2023-05-10T17:43:16.247Z,15.67
2023-05-10T17:48:19.270Z,15.52
2023-05-10T17:53:22.120Z,15.36
2023-05-10T17:58:25.615Z,15.21
2023-05-10T18:03:29.809Z,15.05
2023-05-10T18:08:35.778Z,14.90
2023-05-10T18:13:42.554Z,14.75
2023-05-10T18:18:45.699Z,14.59
2023-05-10T18:23:49.117Z,14.43
2023-05-10T18:28:52.043Z,14.25
2023-05-10T18:33:54.994Z,14.09
2023-05-10T18:38:58.357Z,13.92
2023-05-10T18:44:01.770Z,13.75
2023-05-10T18:49:05.633Z,13.59
2023-05-10T18:54:08.577Z,13.42
2023-05-10T18:59:12.881Z,13.26
2023-05-10T19:04:15.952Z,13.08
2023-05-10T19:09:20.259Z,12.90
2023-05-10T19:14:25.166Z,12.73
2023-05-10T19:19:29.000Z,12.56
2023-05-10T19:24:36.199Z,12.41
2023-05-10T19:29:40.386Z,12.24
2023-05-10T19:34:44.801Z,12.09
2023-05-10T19:39:47.773Z,11.93
2023-05-10T19:44:52.082Z,11.78
2023-05-10T19:49:55.212Z,11.63
2023-05-10T19:54:58.318Z,11.49
2023-05-10T20:00:02.546Z,11.35
2023-05-10T20:05:05.770Z,11.22
2023-05-10T20:10:10.175Z,11.09
2023-05-10T20:15:14.219Z,10.97
2023-05-10T20:20:17.585Z,10.85
2023-05-10T20:25:22.223Z,10.72
2023-05-10T20:30:25.184Z,10.59
2023-05-10T20:35:27.983Z,10.47
2023-05-10T20:40:31.901Z,10.35
2023-05-10T20:45:37.485Z,10.22
2023-05-10T20:50:43.292Z,10.10
2023-05-10T20:55:46.077Z,9.99
2023-05-10T21:00:49.282Z,9.88
2023-05-10T21:05:52.047Z,9.77
2023-05-10T21:10:54.885Z,9.66
2023-05-10T21:15:57.755Z,9.54
2023-05-10T21:21:00.746Z,9.43
2023-05-10T21:26:04.351Z,9.30
2023-05-10T21:31:08.548Z,9.19
2023-05-10T21:36:11.779Z,9.09
2023-05-10T21:41:14.610Z,9.01
2023-05-10T21:46:17.632Z,8.94
2023-05-10T21:51:21.922Z,8.88
2023-05-10T21:56:24.721Z,8.80
2023-05-10T22:01:27.722Z,8.73
2023-05-10T22:06:31.103Z,8.66
2023-05-10T22:11:34.452Z,8.59
2023-05-10T22:16:37.342Z,8.53
2023-05-10T22:21:40.225Z,8.48
2023-05-10T22:26:43.031Z,8.42
2023-05-10T22:31:45.988Z,8.37
2023-05-10T22:36:50.639Z,8.32
2023-05-10T22:41:53.463Z,8.25
2023-05-10T22:46:56.481Z,8.19
2023-05-10T22:51:59.412Z,8.12
2023-05-10T22:57:02.294Z,8.06
2023-05-10T23:02:05.282Z,7.99
2023-05-10T23:07:08.221Z,7.90
2023-05-10T23:12:11.137Z,7.82
2023-05-10T23:17:13.969Z,7.74
2023-05-10T23:22:17.133Z,7.67
2023-05-10T23:27:19.943Z,7.60
2023-05-10T23:32:23.452Z,7.54
2023-05-10T23:37:26.275Z,7.48
2023-05-10T23:42:29.083Z,7.40
2023-05-10T23:47:31.942Z,7.33
2023-05-10T23:52:34.797Z,7.26
2023-05-10T23:57:37.979Z,7.20
